• Join FlightAware (Why Join?)
  • Login
  • US Flag 
09:33AM EDT


 

Airport Tracker/Info


-or-


 

Live Flight TrackerFlight Track Log ✈ AAL2007 ✈ 22-Jun-2013 ✈ KORD - KAUS

Flight Track Log - Related Links

Times and Time Zones

All times are in EDT time to prevent confusion due to time zone crossing. See the AAL2007 flight status page for this flight to view local times or setup timezone preferences in your user account.

Time Position Orientation Groundspeed Altitude Reporting Facility
EDT Latitude Longitude Course Direction KTS MPH feet Rate Location/Type
06:10PM 41.9500 -87.9167 253° West 169 194 1,500  Level Chicago TRACON
06:11PM 41.9000 -87.9667 217° Southwest 217 250 3,600 2,100 Climbing Chicago TRACON
06:12PM 41.8733 -88.3419 242° Southwest  Level FlightAware Approximate
06:12PM 41.8725 -88.0675 250° West 253 291 6,700  Level Chicago Center
06:13PM 41.8327 -88.4864 254° West  Level FlightAware Approximate
06:13PM 41.8628 -88.1683 263° West 274 315 9,200  Level Chicago Center
06:14PM 41.7998 -88.6353 254° West  Level FlightAware Approximate
06:14PM 41.8428 -88.2922 258° West 288 331 12,100  Level Chicago Center
06:15PM 41.7667 -88.7841 253° West  Level FlightAware Approximate
06:15PM 41.8181 -88.4094 254° West 326 375 13,600  Level Chicago Center
06:16PM 41.7917 -88.5372 255° West 355 409 16,000 2,100 Climbing Chicago Center
06:17PM 41.7631 -88.6683 254° West 368 423 18,000 1,980 Climbing Chicago Center
06:18PM 41.7331 -88.8031 253° West 379 436 20,100 1,740 Climbing Chicago Center
06:19PM 41.6964 -88.9753 254° West 401 461 21,700 1,500 Climbing Chicago Center
06:20PM 41.6628 -89.1228 253° West 417 480 23,200 1,380 Climbing Chicago Center
06:22PM 41.6311 -89.2781 255° West 434 499 24,600 1,440 Climbing Chicago Center
06:23PM 41.5967 -89.4328 253° West 438 504 26,200 1,200 Climbing Chicago Center
06:24PM 41.5583 -89.6047 253° West 448 516 27,200 1,320 Climbing Chicago Center
06:25PM 41.5219 -89.7656 253° West 454 522 29,000 1,380 Climbing Chicago Center
06:26PM 41.4875 -89.9203 253° West 441 507 30,100 1,020 Climbing Chicago Center
06:27PM 41.4519 -90.0736 253° West 437 503 31,100 1,020 Climbing Chicago Center
06:28PM 41.4103 -90.2572 253° West 434 499 32,200 840 Climbing Chicago Center
06:29PM 41.3753 -90.4083 253° West 431 496 32,900 540 Climbing Chicago Center
06:30PM 41.3400 -90.5594 253° West 430 495 33,400 480 Climbing Chicago Center
06:31PM 41.2856 -90.7008 243° Southwest 432 497 33,900 240 Climbing Chicago Center
06:32PM 41.2133 -90.8197 231° Southwest 417 480 34,000  Climbing Chicago Center
06:33PM 41.1411 -90.9417 232° Southwest 421 484 34,000  Level Chicago Center
06:34PM 41.0536 -91.0894 232° Southwest 426 490 34,000  Level Chicago Center
06:35PM 40.9800 -91.2117 231° Southwest 426 490 34,000  Level Chicago Center
06:36PM 40.9147 -91.3183 231° Southwest 411 473 34,000  Level Chicago Center
06:37PM 40.8456 -91.4367 232° Southwest 410 472 34,000 -600 Level Chicago Center
06:38PM 40.7589 -91.5792 231° Southwest 417 480 32,800 -1,020 Descending Chicago Center
06:39PM 40.6858 -91.6981 231° Southwest 420 483 32,000 -420 Descending Chicago Center
06:40PM 40.6133 -91.8186 232° Southwest 424 488 32,000  Level Chicago Center
06:41PM 40.5406 -91.9364 231° Southwest 419 482 32,000  Level Chicago Center
06:42PM 40.4672 -92.0547 231° Southwest 420 483 32,000  Level Chicago Center
06:43PM 40.3944 -92.1719 231° Southwest 418 481 32,000  Level Kansas City Center
06:44PM 40.3219 -92.2886 231° Southwest 414 476 32,000  Level Kansas City Center
06:45PM 40.2458 -92.4092 230° Southwest 418 481 32,000  Level Kansas City Center
06:46PM 40.1736 -92.5222 230° Southwest 421 484 32,000  Level Kansas City Center
06:47PM 40.0847 -92.6417 226° Southwest 410 472 32,000  Level Kansas City Center
06:48PM 40.0025 -92.7275 219° Southwest 406 467 32,000  Level Kansas City Center
06:49PM 39.9147 -92.8200 219° Southwest 407 468 32,000  Level Kansas City Center
06:50PM 39.8269 -92.9133 219° Southwest 410 472 32,000  Level Kansas City Center
06:51PM 39.7389 -93.0072 219° Southwest 411 473 32,000  Level Kansas City Center
06:52PM 39.6317 -93.1161 218° Southwest 412 474 32,000  Level Kansas City Center
06:53PM 39.5428 -93.2081 219° Southwest 413 475 32,000  Level Kansas City Center
06:54PM 39.4517 -93.2994 218° Southwest 415 478 32,000  Level Kansas City Center
06:55PM 39.3639 -93.3919 219° Southwest 412 474 32,000  Level Kansas City Center
06:56PM 39.2700 -93.4872 218° Southwest 417 480 32,000  Level Kansas City Center
06:57PM 39.1678 -93.5925 219° Southwest 419 482 32,000  Level Kansas City Center
06:58PM 39.0794 -93.6817 218° Southwest 421 484 32,000  Level Kansas City Center
06:59PM 38.9772 -93.7856 218° Southwest 419 482 32,000  Level Kansas City Center
07:00PM 38.8886 -93.8767 219° Southwest 422 486 32,000  Level Kansas City Center
07:01PM 38.7831 -93.9825 218° Southwest 427 491 32,000  Level Kansas City Center
07:02PM 38.6931 -94.0733 218° Southwest 429 494 32,000  Level Kansas City Center
07:04PM 38.6008 -94.1636 217° Southwest 433 498 32,000  Level Kansas City Center
07:05PM 38.4922 -94.2703 218° Southwest 438 504 32,000  Level Kansas City Center
07:06PM 38.3994 -94.3619 218° Southwest 439 505 32,000  Level Kansas City Center
07:07PM 38.2917 -94.4681 218° Southwest 438 504 32,000  Level Kansas City Center
07:08PM 38.1892 -94.5392 209° Southwest 436 502 32,000  Level Kansas City Center
07:09PM 38.0822 -94.6089 207° Southwest 448 516 32,000  Level Kansas City Center
07:10PM 37.9594 -94.6892 207° Southwest 445 512 32,000  Level Kansas City Center
07:11PM 37.8539 -94.7561 207° Southwest 442 509 32,000  Level Kansas City Center
07:12PM 37.7314 -94.8331 206° Southwest 441 507 32,000  Level Kansas City Center
07:13PM 37.6186 -94.9050 207° Southwest 448 516 32,000  Level Kansas City Center
07:14PM 37.5083 -94.9761 207° Southwest 446 513 32,000  Level Kansas City Center
07:15PM 37.3942 -95.0458 206° Southwest 452 520 32,000  Level Kansas City Center
07:16PM 37.2822 -95.1169 207° Southwest 451 519 32,000  Level Kansas City Center
07:17PM 37.1717 -95.1864 207° Southwest 445 512 32,000  Level Kansas City Center
07:18PM 37.0617 -95.2550 206° Southwest 442 509 32,000  Level Kansas City Center
07:19PM 36.9492 -95.3244 206° Southwest 447 514 32,000  Level Kansas City Center
07:20PM 36.8158 -95.4069 206° Southwest 447 514 32,000  Level Kansas City Center
07:21PM 36.7053 -95.4761 207° Southwest 446 513 32,000  Level Kansas City Center
07:22PM 36.5942 -95.5453 207° Southwest 445 512 32,000  Level Kansas City Center
07:23PM 36.4817 -95.6156 207° Southwest 451 519 32,000  Level Kansas City Center
07:24PM 36.3675 -95.6831 205° Southwest 454 522 32,000  Level Kansas City Center
07:25PM 36.2397 -95.7608 206° Southwest 450 518 32,000  Level Kansas City Center
07:26PM 36.1253 -95.8206 203° Southwest 448 516 32,000  Level Kansas City Center
07:27PM 36.0067 -95.8694 198° South 450 518 32,000  Level Kansas City Center
07:28PM 35.8878 -95.9217 200° South 452 520 32,000  Level Kansas City Center
07:29PM 35.7686 -95.9719 199° South 453 521 32,000  Level Kansas City Center
07:30PM 35.6506 -96.0233 199° South 450 518 32,000  Level Kansas City Center
07:31PM 35.5239 -96.0781 199° South 449 517 32,000  Level Kansas City Center
07:32PM 35.4050 -96.1292 199° South 450 518 32,000  Level Kansas City Center
07:33PM 35.3022 -96.1747 200° South 451 519 32,000  Level Fort Worth Center
07:34PM 35.1836 -96.2247 199° South 451 519 32,000  Level Fort Worth Center
07:35PM 35.0589 -96.2569 192° South 451 519 32,000  Level Fort Worth Center
07:36PM 34.9361 -96.2864 191° South 456 525 32,000  Level Fort Worth Center
07:37PM 34.8133 -96.3183 192° South 456 525 32,000  Level Fort Worth Center
07:38PM 34.6906 -96.3503 192° South 456 525 32,000  Level Fort Worth Center
07:39PM 34.5678 -96.3822 192° South 451 519 32,000  Level Fort Worth Center
07:40PM 34.4447 -96.4139 192° South 451 519 32,000  Level Fort Worth Center
07:41PM 34.3219 -96.4478 193° South 451 519 32,000  Level Fort Worth Center
07:42PM 34.1969 -96.4769 191° South 451 519 32,000  Level Fort Worth Center
07:43PM 34.0950 -96.5031 192° South 440 506 32,000  Level Fort Worth Center
07:44PM 33.9719 -96.5344 192° South 440 506 32,000  Level Fort Worth Center
07:45PM 33.8492 -96.5631 191° South 445 512 32,000  Level Fort Worth Center
07:46PM 33.7303 -96.5942 192° South 450 518 32,000  Level Fort Worth Center
07:47PM 33.6075 -96.6228 191° South 450 518 32,000  Level Fort Worth Center
07:48PM 33.4844 -96.6564 193° South 450 518 32,000  Level Fort Worth Center
07:49PM 33.3614 -96.6872 192° South 450 518 32,000  Level Fort Worth Center
07:50PM 33.2364 -96.7156 191° South 450 518 32,000  Level Fort Worth Center
07:51PM 33.1050 -96.7464 191° South 450 518 32,000  Level Fort Worth Center
07:52PM 32.9800 -96.7794 193° South 450 518 32,000  Level Fort Worth Center
07:53PM 32.8569 -96.8075 191° South 450 518 32,000  Level Fort Worth Center
07:54PM 32.7319 -96.8431 193° South 450 518 32,000  Level Fort Worth Center
07:55PM 32.6089 -96.8708 191° South 450 518 32,000  Level Fort Worth Center
07:56PM 32.4836 -96.9011 192° South 450 518 32,000  Level Fort Worth Center
07:57PM 32.3647 -96.9314 192° South 450 518 32,000  Level Fort Worth Center
07:58PM 32.2397 -96.9639 192° South 450 518 32,000  Level Fort Worth Center
07:59PM 32.1167 -96.9939 192° South 450 518 32,000  Level Fort Worth Center
08:00PM 31.9936 -97.0239 192° South 450 518 32,000 -600 Level Fort Worth Center
08:01PM 31.8681 -97.0511 190° South 450 518 30,900 -1,500 Descending Houston Center
08:02PM 31.7436 -97.0806 191° South 451 519 28,900 -2,100 Descending Houston Center
08:03PM 31.6169 -97.1119 192° South 457 526 26,700 -2,220 Descending Houston Center
08:04PM 31.4919 -97.1406 191° South 454 522 24,400 -2,160 Descending Houston Center
08:05PM 31.3714 -97.1700 192° South 440 506 22,300 -2,220 Descending Houston Center
08:06PM 31.2525 -97.1969 191° South 432 497 20,000 -2,100 Descending Houston Center
08:07PM 31.1422 -97.2344 196° South 413 475 18,000 -2,100 Descending Houston Center
08:08PM 31.0386 -97.2750 199° South 394 453 15,700 -2,100 Descending Houston Center
08:09PM 30.9406 -97.3131 198° South 386 444 13,800 -1,320 Descending Houston Center
08:10PM 30.8250 -97.3569 198° South 382 440 13,000 -840 Descending Houston Center
08:11PM 30.7369 -97.3914 199° South 339 390 12,200 -1,380 Descending Houston Center
08:12PM 30.6575 -97.4208 198° South 309 356 10,300 -2,100 Descending Houston Center
08:13PM 30.5881 -97.4653 209° Southwest 291 335 8,000 -2,400 Descending Houston Center
08:14PM 30.5308 -97.5214 220° Southwest 269 310 5,500 -2,160 Descending Houston Center
08:15PM 30.4733 -97.5725 217° Southwest 262 302 3,700 -1,440 Descending Houston Center
08:16PM 30.4228 -97.6175 218° Southwest 241 277 2,600 -600 Descending Houston Center
08:17PM 30.3686 -97.6475 206° Southwest 223 257 2,500 -120 Descending Houston Center